| time (UTC) | temp F | wind direction | speed MPH | gust MPH | rain 1hr in | rain 24hr in | rain mn in | humidity % | barometer mb |
| 20260510033427 | 60 | 61 | 0.0 | 0.0 | 0.00 | 0.00 | 0.00 | 85 | 1012.1 |
| 20260510032924 | 61 | 63 | 0.0 | 0.0 | 0.00 | 0.00 | 0.00 | 83 | 1011.9 |
| 20260510032421 | 61 | 63 | 0.0 | 0.0 | 0.00 | 0.00 | 0.00 | 81 | 1011.9 |
| 20260510031916 | 62 | 63 | 0.0 | 0.0 | 0.00 | 0.00 | 0.00 | 78 | 1011.8 |
| 20260510031413 | 62 | 63 | 0.0 | 0.0 | 0.00 | 0.00 | 0.00 | 78 | 1011.8 |
| 20260510030913 | 63 | 61 | 0.0 | 0.0 | 0.00 | 0.00 | 0.00 | 76 | 1011.6 |
| 20260510030409 | 63 | 61 | 0.0 | 0.0 | 0.00 | 0.00 | 0.00 | 75 | 1011.6 |
| 20260510025907 | 63 | 61 | 0.0 | 0.0 | 0.00 | 0.00 | 0.00 | 74 | 1011.3 |
| 20260510025404 | 64 | 56 | 0.0 | 0.0 | 0.00 | 0.00 | 0.00 | 74 | 1011.4 |
| 20260510024901 | 64 | 63 | 0.0 | 0.0 | 0.00 | 0.00 | 0.00 | 72 | 1011.5 |
| 20260510024358 | 65 | 63 | 0.0 | 0.0 | 0.00 | 0.00 | 0.00 | 71 | 1011.4 |
| 20260510023853 | 66 | 61 | 0.0 | 0.0 | 0.00 | 0.00 | 0.00 | 70 | 1011.2 |
| 20260510023350 | 67 | 56 | 0.0 | 0.0 | 0.00 | 0.00 | 0.00 | 67 | 1011.1 |
| 20260510022848 | 67 | 64 | 0.0 | 0.0 | 0.00 | 0.00 | 0.00 | 65 | 1011.1 |
| 20260510022347 | 67 | 64 | 0.0 | 0.0 | 0.00 | 0.00 | 0.00 | 66 | 1010.9 |
| 20260510021845 | 67 | 63 | 1.0 | 1.0 | 0.00 | 0.00 | 0.00 | 65 | 1010.7 |
| 20260510021344 | 67 | 61 | 0.0 | 0.0 | 0.00 | 0.00 | 0.00 | 64 | 1010.8 |
| 20260510020840 | 68 | 60 | 0.0 | 0.0 | 0.00 | 0.00 | 0.00 | 64 | 1010.7 |
| 20260510020335 | 68 | 64 | 0.0 | 0.0 | 0.00 | 0.00 | 0.00 | 63 | 1010.5 |
| 20260510015831 | 68 | 63 | 0.0 | 0.0 | 0.00 | 0.00 | 0.00 | 64 | 1010.5 |
| 20260510015327 | 69 | 65 | 0.0 | 0.0 | 0.00 | 0.00 | 0.00 | 63 | 1010.4 |
| 20260510014822 | 69 | 55 | 1.0 | 1.0 | 0.00 | 0.00 | 0.00 | 62 | 1010.2 |
| 20260510014320 | 70 | 98 | 1.0 | 1.0 | 0.00 | 0.00 | 0.00 | 60 | 1010.1 |
| 20260510013816 | 69 | 102 | 1.0 | 1.0 | 0.00 | 0.00 | 0.00 | 61 | 1010.1 |
| 20260510013311 | 71 | 125 | 1.0 | 1.0 | 0.00 | 0.00 | 0.00 | 60 | 1010.2 |
| 20260510012806 | 73 | 151 | 0.0 | 0.0 | 0.00 | 0.00 | 0.00 | 55 | 1009.9 |
| 20260510012300 | 73 | 151 | 0.0 | 0.0 | 0.00 | 0.00 | 0.00 | 54 | 1010.0 |
| 20260510011755 | 72 | 152 | 0.0 | 1.0 | 0.00 | 0.00 | 0.00 | 55 | 1009.8 |
| 20260510011251 | 72 | 128 | 1.0 | 1.0 | 0.00 | 0.00 | 0.00 | 56 | 1009.7 |
| 20260510010748 | 72 | 157 | 1.0 | 1.0 | 0.00 | 0.00 | 0.00 | 55 | 1009.7 |
| 20260510010244 | 74 | 121 | 1.0 | 2.0 | 0.00 | 0.00 | 0.00 | 54 | 1009.7 |
| 20260510005742 | 74 | 148 | 0.0 | 1.0 | 0.00 | 0.00 | 0.00 | 51 | 1009.7 |
| 20260510005238 | 75 | 114 | 0.0 | 0.0 | 0.00 | 0.00 | 0.00 | 50 | 1009.6 |
| 20260510004736 | 76 | 125 | 0.0 | 1.0 | 0.00 | 0.00 | 0.00 | 48 | 1009.3 |
| 20260510004233 | 77 | 125 | 0.0 | 1.0 | 0.00 | 0.00 | 0.00 | 48 | 1009.3 |
| 20260510003731 | 77 | 141 | 0.0 | 0.0 | 0.00 | 0.00 | 0.00 | 49 | 1009.2 |
| 20260510003227 | 78 | 140 | 0.0 | 0.0 | 0.00 | 0.00 | 0.00 | 45 | 1009.3 |
| 20260510002725 | 79 | 158 | 0.0 | 0.0 | 0.00 | 0.00 | 0.00 | 44 | 1009.2 |
| 20260510002223 | 79 | 155 | 0.0 | 0.0 | 0.00 | 0.00 | 0.00 | 41 | 1009.2 |
| 20260510001720 | 79 | 184 | 0.0 | 0.0 | 0.00 | 0.00 | 0.00 | 42 | 1009.3 |
| 20260510001218 | 80 | 137 | 1.0 | 2.0 | 0.00 | 0.00 | 0.00 | 41 | 1009.2 |
| 20260510000714 | 81 | 68 | 1.0 | 1.0 | 0.00 | 0.00 | 0.00 | 38 | 1009.2 |
| 20260510000212 | 80 | 68 | 0.0 | 0.0 | 0.00 | 0.00 | 0.00 | 37 | 1009.2 |
| 20260509235708 | 80 | 71 | 0.0 | 0.0 | 0.00 | 0.00 | 0.00 | 36 | 1009.3 |
| 20260509235204 | 80 | 46 | 1.0 | 1.0 | 0.00 | 0.00 | 0.00 | 35 | 1009.6 |
| 20260509234701 | 81 | 73 | 1.0 | 2.0 | 0.00 | 0.00 | 0.00 | 35 | 1009.1 |
| 20260509234158 | 81 | 54 | 2.0 | 3.0 | 0.00 | 0.00 | 0.00 | 35 | 1009.4 |
| 20260509233656 | 81 | 78 | 0.0 | 0.0 | 0.00 | 0.00 | 0.00 | 36 | 1009.4 |
| 20260509233153 | 82 | 51 | 1.0 | 2.0 | 0.00 | 0.00 | 0.00 | 35 | 1009.6 |
| 20260509232649 | 82 | 41 | 2.0 | 2.0 | 0.00 | 0.00 | 0.00 | 31 | 1009.6 |
| 20260509232146 | 84 | 29 | 1.0 | 2.0 | 0.00 | 0.00 | 0.00 | 31 | 1009.6 |
| 20260509231643 | 84 | 0 | 0.0 | 1.0 | 0.00 | 0.00 | 0.00 | 28 | 1009.7 |
| 20260509231140 | 83 | 61 | 1.0 | 1.0 | 0.00 | 0.00 | 0.00 | 28 | 1009.8 |
| 20260509230637 | 83 | 86 | 1.0 | 1.0 | 0.00 | 0.00 | 0.00 | 29 | 1009.7 |
| 20260509230134 | 83 | 63 | 0.0 | 0.0 | 0.00 | 0.00 | 0.00 | 30 | 1009.6 |
| 20260509225630 | 83 | 48 | 1.0 | 2.0 | 0.00 | 0.00 | 0.00 | 30 | 1009.6 |
| 20260509225125 | 82 | 115 | 1.0 | 1.0 | 0.00 | 0.00 | 0.00 | 30 | 1009.4 |
| 20260509224621 | 84 | 44 | 3.0 | 3.0 | 0.00 | 0.00 | 0.00 | 28 | 1009.6 |
| 20260509224118 | 82 | 29 | 1.0 | 2.0 | 0.00 | 0.00 | 0.00 | 28 | 1009.8 |
| 20260509223615 | 82 | 30 | 2.0 | 3.0 | 0.00 | 0.00 | 0.00 | 30 | 1009.7 |
| 20260509223113 | 82 | 67 | 1.0 | 2.0 | 0.00 | 0.00 | 0.00 | 31 | 1009.7 |
| 20260509222608 | 83 | 35 | 2.0 | 2.0 | 0.00 | 0.00 | 0.00 | 32 | 1009.7 |
| 20260509222105 | 85 | 170 | 2.0 | 2.0 | 0.00 | 0.00 | 0.00 | 30 | 1009.8 |
| 20260509221600 | 83 | 185 | 1.0 | 1.0 | 0.00 | 0.00 | 0.00 | 28 | 1009.8 |
| 20260509221057 | 83 | 154 | 1.0 | 2.0 | 0.00 | 0.00 | 0.00 | 31 | 1009.8 |
| 20260509220552 | 84 | 198 | 0.0 | 1.0 | 0.00 | 0.00 | 0.00 | 29 | 1009.7 |
| 20260509220049 | 84 | 148 | 3.0 | 3.0 | 0.00 | 0.00 | 0.00 | 27 | 1009.8 |
| 20260509215544 | 84 | 135 | 2.0 | 2.0 | 0.00 | 0.00 | 0.00 | 25 | 1009.7 |
| 20260509215042 | 84 | 78 | 4.0 | 4.0 | 0.00 | 0.00 | 0.00 | 29 | 1009.8 |
| 20260509214539 | 85 | 73 | 0.0 | 0.0 | 0.00 | 0.00 | 0.00 | 28 | 1009.9 |
| 20260509214036 | 84 | 218 | 0.0 | 0.0 | 0.00 | 0.00 | 0.00 | 29 | 1009.8 |
| 20260509213532 | 85 | 21 | 2.0 | 3.0 | 0.00 | 0.00 | 0.00 | 30 | 1009.8 |
| 20260509213029 | 84 | 18 | 0.0 | 0.0 | 0.00 | 0.00 | 0.00 | 30 | 1010.0 |
| 20260509212526 | 87 | 60 | 2.0 | 4.0 | 0.00 | 0.00 | 0.00 | 31 | 1009.9 |
| 20260509212023 | 84 | 18 | 0.0 | 0.0 | 0.00 | 0.00 | 0.00 | 28 | 1009.9 |
| 20260509211518 | 84 | 154 | 2.0 | 3.0 | 0.00 | 0.00 | 0.00 | 28 | 1009.9 |
| 20260509211016 | 85 | 68 | 1.0 | 1.0 | 0.00 | 0.00 | 0.00 | 28 | 1009.9 |
| 20260509210512 | 84 | 65 | 6.0 | 7.0 | 0.00 | 0.00 | 0.00 | 31 | 1010.2 |
| 20260509210009 | 85 | 148 | 2.0 | 3.0 | 0.00 | 0.00 | 0.00 | 29 | 1010.1 |
| 20260509205503 | 86 | 163 | 1.0 | 1.0 | 0.00 | 0.00 | 0.00 | 27 | 1010.2 |
| 20260509204958 | 86 | 275 | 1.0 | 1.0 | 0.00 | 0.00 | 0.00 | 26 | 1010.3 |
| 20260509204455 | 83 | 35 | 3.0 | 4.0 | 0.00 | 0.00 | 0.00 | 29 | 1010.1 |
| 20260509203951 | 84 | 96 | 2.0 | 3.0 | 0.00 | 0.00 | 0.00 | 30 | 1010.2 |
| 20260509203447 | 85 | 182 | 0.0 | 0.0 | 0.00 | 0.00 | 0.00 | 27 | 1010.5 |
| 20260509202945 | 86 | 71 | 1.0 | 1.0 | 0.00 | 0.00 | 0.00 | 26 | 1010.4 |
| 20260509202441 | 84 | 219 | 2.0 | 2.0 | 0.00 | 0.00 | 0.00 | 30 | 1010.6 |
| 20260509201936 | 86 | 44 | 3.0 | 3.0 | 0.00 | 0.00 | 0.00 | 26 | 1010.6 |
| 20260509201431 | 85 | 166 | 2.0 | 2.0 | 0.00 | 0.00 | 0.00 | 31 | 1010.4 |
| 20260509200929 | 89 | 10 | 0.0 | 2.0 | 0.00 | 0.00 | 0.00 | 27 | 1010.5 |
| 20260509200428 | 86 | 261 | 0.0 | 0.0 | 0.00 | 0.00 | 0.00 | 24 | 1010.6 |
| 20260509195925 | 86 | 42 | 2.0 | 2.0 | 0.00 | 0.00 | 0.00 | 28 | 1010.8 |
| 20260509195421 | 83 | 128 | 0.0 | 1.0 | 0.00 | 0.00 | 0.00 | 29 | 1010.8 |
| 20260509194920 | 85 | 8 | 1.0 | 2.0 | 0.00 | 0.00 | 0.00 | 30 | 1011.0 |
| 20260509194416 | 87 | 52 | 2.0 | 2.0 | 0.00 | 0.00 | 0.00 | 29 | 1010.7 |
| 20260509193914 | 86 | 142 | 1.0 | 2.0 | 0.00 | 0.00 | 0.00 | 28 | 1010.8 |
| 20260509193413 | 86 | 178 | 0.0 | 0.0 | 0.00 | 0.00 | 0.00 | 27 | 1010.7 |
| 20260509192909 | 86 | 266 | 1.0 | 1.0 | 0.00 | 0.00 | 0.00 | 31 | 1010.7 |
| 20260509192405 | 86 | 233 | 1.0 | 2.0 | 0.00 | 0.00 | 0.00 | 36 | 1010.7 |
| 20260509191901 | 86 | 264 | 1.0 | 2.0 | 0.00 | 0.00 | 0.00 | 31 | 1010.9 |
| 20260509191357 | 85 | 6 | 4.0 | 6.0 | 0.00 | 0.00 | 0.00 | 34 | 1010.9 |
| 20260509190853 | 87 | 204 | 2.0 | 2.0 | 0.00 | 0.00 | 0.00 | 32 | 1010.7 |
| 20260509190350 | 85 | 241 | 0.0 | 1.0 | 0.00 | 0.00 | 0.00 | 31 | 1011.0 |
| 20260509185848 | 87 | 56 | 4.0 | 6.0 | 0.00 | 0.00 | 0.00 | 33 | 1010.8 |
| 20260509185344 | 87 | 300 | 2.0 | 4.0 | 0.00 | 0.00 | 0.00 | 31 | 1010.9 |
| 20260509184841 | 87 | 212 | 0.0 | 0.0 | 0.00 | 0.00 | 0.00 | 32 | 1011.0 |
| 20260509184338 | 84 | 61 | 1.0 | 2.0 | 0.00 | 0.00 | 0.00 | 32 | 1011.2 |
| 20260509183835 | 89 | 37 | 1.0 | 1.0 | 0.00 | 0.00 | 0.00 | 30 | 1011.1 |
| 20260509183330 | 86 | 291 | 0.0 | 1.0 | 0.00 | 0.00 | 0.00 | 30 | 1011.1 |
| 20260509182826 | 87 | 86 | 1.0 | 2.0 | 0.00 | 0.00 | 0.00 | 30 | 1011.0 |
| 20260509182323 | 88 | 285 | 2.0 | 2.0 | 0.00 | 0.00 | 0.00 | 29 | 1011.1 |
| 20260509181821 | 85 | 282 | 1.0 | 1.0 | 0.00 | 0.00 | 0.00 | 31 | 1011.2 |
| 20260509181318 | 83 | 262 | 0.0 | 1.0 | 0.00 | 0.00 | 0.00 | 37 | 1011.1 |
| 20260509180815 | 82 | 252 | 1.0 | 1.0 | 0.00 | 0.00 | 0.00 | 36 | 1011.2 |
| 20260509180311 | 81 | 154 | 2.0 | 3.0 | 0.00 | 0.00 | 0.00 | 39 | 1011.1 |
| 20260509175808 | 82 | 204 | 0.0 | 1.0 | 0.00 | 0.00 | 0.00 | 36 | 1011.1 |
| 20260509175306 | 81 | 188 | 2.0 | 3.0 | 0.00 | 0.00 | 0.00 | 39 | 1011.2 |
| 20260509174800 | 83 | 57 | 0.0 | 0.0 | 0.00 | 0.00 | 0.00 | 31 | 1011.2 |
| 20260509174256 | 86 | 19 | 2.0 | 3.0 | 0.00 | 0.00 | 0.00 | 33 | 1011.5 |
| 20260509173752 | 87 | 26 | 0.0 | 1.0 | 0.00 | 0.00 | 0.00 | 33 | 1011.4 |
| 20260509173247 | 88 | 219 | 0.0 | 0.0 | 0.00 | 0.00 | 0.00 | 38 | 1011.4 |
| 20260509172744 | 85 | 71 | 1.0 | 2.0 | 0.00 | 0.00 | 0.00 | 40 | 1011.5 |
| 20260509172241 | 81 | 283 | 1.0 | 2.0 | 0.00 | 0.00 | 0.00 | 48 | 1011.4 |
| 20260509171736 | 81 | 254 | 3.0 | 4.0 | 0.00 | 0.00 | 0.00 | 50 | 1011.6 |
| 20260509171233 | 85 | 279 | 2.0 | 3.0 | 0.00 | 0.00 | 0.00 | 47 | 1011.4 |
| 20260509170729 | 81 | 350 | 2.0 | 2.0 | 0.00 | 0.00 | 0.00 | 47 | 1011.4 |
| 20260509170225 | 81 | 45 | 2.0 | 3.0 | 0.00 | 0.00 | 0.00 | 50 | 1011.6 |
| 20260509165724 | 84 | 61 | 0.0 | 0.0 | 0.00 | 0.00 | 0.00 | 48 | 1011.5 |
| 20260509165219 | 83 | 58 | 1.0 | 2.0 | 0.00 | 0.00 | 0.00 | 48 | 1011.6 |
| 20260509164715 | 82 | 326 | 2.0 | 2.0 | 0.00 | 0.00 | 0.00 | 48 | 1011.5 |
| 20260509164211 | 78 | 248 | 0.0 | 0.0 | 0.00 | 0.00 | 0.00 | 54 | 1011.5 |
| 20260509163709 | 79 | 257 | 2.0 | 3.0 | 0.00 | 0.00 | 0.00 | 53 | 1011.5 |
| 20260509163205 | 81 | 255 | 1.0 | 1.0 | 0.00 | 0.00 | 0.00 | 53 | 1011.6 |
| 20260509162703 | 80 | 70 | 3.0 | 3.0 | 0.00 | 0.00 | 0.00 | 56 | 1011.6 |
| 20260509162158 | 80 | 275 | 1.0 | 1.0 | 0.00 | 0.00 | 0.00 | 51 | 1011.8 |
| 20260509161654 | 78 | 344 | 1.0 | 1.0 | 0.00 | 0.00 | 0.00 | 54 | 1011.8 |
| 20260509161150 | 76 | 359 | 1.0 | 3.0 | 0.00 | 0.00 | 0.00 | 58 | 1011.8 |
| 20260509160645 | 76 | 250 | 1.0 | 1.0 | 0.00 | 0.00 | 0.00 | 60 | 1011.8 |
| 20260509160141 | 79 | 274 | 2.0 | 3.0 | 0.00 | 0.00 | 0.00 | 63 | 1011.7 |
| 20260509155638 | 76 | 325 | 2.0 | 2.0 | 0.00 | 0.00 | 0.00 | 64 | 1011.8 |
| 20260509155134 | 75 | 218 | 0.0 | 0.0 | 0.00 | 0.00 | 0.00 | 68 | 1011.9 |
| 20260509154630 | 75 | 238 | 0.0 | 1.0 | 0.00 | 0.00 | 0.00 | 68 | 1011.9 |
| 20260509154127 | 74 | 276 | 1.0 | 1.0 | 0.00 | 0.00 | 0.00 | 71 | 1011.8 |
| 20260509153624 | 74 | 287 | 4.0 | 4.0 | 0.00 | 0.00 | 0.00 | 68 | 1011.7 |
| 20260509153121 | 76 | 230 | 1.0 | 2.0 | 0.00 | 0.00 | 0.00 | 73 | 1011.7 |
| 20260509152616 | 76 | 279 | 0.0 | 0.0 | 0.00 | 0.00 | 0.00 | 69 | 1011.7 |
| 20260509152114 | 73 | 278 | 0.0 | 0.0 | 0.00 | 0.00 | 0.00 | 70 | 1011.6 |
| 20260509151610 | 72 | 299 | 3.0 | 3.0 | 0.00 | 0.00 | 0.00 | 76 | 1011.6 |
| 20260509151108 | 72 | 210 | 3.0 | 3.0 | 0.00 | 0.00 | 0.00 | 78 | 1011.6 |
| 20260509150606 | 72 | 268 | 2.0 | 2.0 | 0.00 | 0.00 | 0.00 | 76 | 1011.7 |
| 20260509150104 | 70 | 210 | 1.0 | 1.0 | 0.00 | 0.00 | 0.00 | 78 | 1011.7 |
| 20260509145559 | 71 | 265 | 2.0 | 3.0 | 0.00 | 0.00 | 0.00 | 79 | 1011.7 |
| 20260509145055 | 73 | 268 | 2.0 | 2.0 | 0.00 | 0.00 | 0.00 | 74 | 1011.6 |
| 20260509144552 | 71 | 200 | 0.0 | 0.0 | 0.00 | 0.00 | 0.00 | 76 | 1011.7 |
| 20260509144049 | 69 | 149 | 0.0 | 0.0 | 0.00 | 0.00 | 0.00 | 77 | 1011.6 |
| 20260509143546 | 71 | 215 | 2.0 | 2.0 | 0.00 | 0.00 | 0.00 | 76 | 1011.5 |
| 20260509143044 | 71 | 204 | 1.0 | 1.0 | 0.00 | 0.00 | 0.00 | 77 | 1011.7 |
| 20260509142538 | 70 | 202 | 0.0 | 1.0 | 0.00 | 0.00 | 0.00 | 77 | 1011.7 |
| 20260509142035 | 73 | 178 | 1.0 | 2.0 | 0.00 | 0.00 | 0.00 | 71 | 1011.5 |
| 20260509141531 | 72 | 145 | 0.0 | 0.0 | 0.00 | 0.00 | 0.00 | 73 | 1011.4 |
| 20260509141028 | 69 | 145 | 0.0 | 0.0 | 0.00 | 0.00 | 0.00 | 77 | 1011.6 |
| 20260509140525 | 68 | 144 | 0.0 | 0.0 | 0.00 | 0.00 | 0.00 | 77 | 1011.5 |
| 20260509140023 | 66 | 144 | 0.0 | 1.0 | 0.00 | 0.00 | 0.00 | 84 | 1011.4 |
| 20260509135520 | 66 | 143 | 0.0 | 0.0 | 0.00 | 0.00 | 0.00 | 80 | 1011.4 |
| 20260509135017 | 64 | 162 | 0.0 | 0.0 | 0.00 | 0.00 | 0.00 | 85 | 1011.2 |
| 20260509134514 | 61 | 131 | 0.0 | 0.0 | 0.00 | 0.00 | 0.00 | 88 | 1011.3 |
| 20260509134012 | 60 | 118 | 1.0 | 1.0 | 0.00 | 0.00 | 0.00 | 90 | 1011.0 |
| 20260509133508 | 59 | 116 | 2.0 | 3.0 | 0.00 | 0.00 | 0.00 | 91 | 1011.0 |
| 20260509133007 | 58 | 264 | 1.0 | 2.0 | 0.00 | 0.00 | 0.00 | 94 | 1011.1 |
| 20260509132504 | 59 | 265 | 0.0 | 0.0 | 0.00 | 0.00 | 0.00 | 96 | 1011.2 |
| 20260509132001 | 59 | 265 | 0.0 | 0.0 | 0.00 | 0.00 | 0.00 | 96 | 1011.1 |
| 20260509131458 | 58 | 265 | 0.0 | 0.0 | 0.00 | 0.00 | 0.00 | 96 | 1011.2 |
| 20260509130955 | 57 | 264 | 0.0 | 0.0 | 0.00 | 0.00 | 0.00 | 96 | 1011.1 |
| 20260509130450 | 55 | 264 | 0.0 | 0.0 | 0.00 | 0.00 | 0.00 | 96 | 1011.1 |
| 20260509125948 | 53 | 264 | 0.0 | 0.0 | 0.00 | 0.00 | 0.00 | 96 | 1011.1 |
| 20260509125444 | 54 | 264 | 0.0 | 0.0 | 0.00 | 0.00 | 0.00 | 96 | 1011.0 |
| 20260509124940 | 54 | 264 | 0.0 | 0.0 | 0.00 | 0.00 | 0.00 | 96 | 1010.9 |
| 20260509124437 | 53 | 264 | 0.0 | 0.0 | 0.00 | 0.00 | 0.00 | 97 | 1010.8 |
| 20260509123934 | 52 | 264 | 0.0 | 0.0 | 0.00 | 0.00 | 0.00 | 97 | 1011.0 |
| 20260509123432 | 52 | 264 | 0.0 | 0.0 | 0.00 | 0.00 | 0.00 | 97 | 1010.8 |
| 20260509122928 | 51 | 264 | 0.0 | 0.0 | 0.00 | 0.00 | 0.00 | 97 | 1010.9 |
| 20260509122425 | 51 | 264 | 1.0 | 1.0 | 0.00 | 0.00 | 0.00 | 97 | 1010.7 |
| 20260509121921 | 51 | 264 | 0.0 | 0.0 | 0.00 | 0.00 | 0.00 | 97 | 1010.8 |
| 20260509121418 | 51 | 264 | 0.0 | 0.0 | 0.00 | 0.00 | 0.00 | 97 | 1010.7 |
| 20260509120917 | 50 | 264 | 0.0 | 0.0 | 0.00 | 0.00 | 0.00 | 97 | 1010.5 |
| 20260509120414 | 50 | 264 | 1.0 | 1.0 | 0.00 | 0.00 | 0.00 | 97 | 1010.6 |
| 20260509115912 | 50 | 264 | 0.0 | 0.0 | 0.00 | 0.00 | 0.00 | 97 | 1010.4 |
| 20260509115409 | 50 | 263 | 0.0 | 0.0 | 0.00 | 0.00 | 0.00 | 97 | 1010.4 |
| 20260509114906 | 50 | 263 | 0.0 | 0.0 | 0.00 | 0.00 | 0.00 | 97 | 1010.2 |
| 20260509114405 | 50 | 264 | 0.0 | 0.0 | 0.00 | 0.00 | 0.00 | 97 | 1010.2 |
| 20260509113904 | 50 | 264 | 0.0 | 0.0 | 0.00 | 0.00 | 0.00 | 97 | 1010.1 |
| 20260509113401 | 50 | 264 | 0.0 | 0.0 | 0.00 | 0.00 | 0.00 | 97 | 1010.2 |
| 20260509112857 | 50 | 264 | 0.0 | 0.0 | 0.00 | 0.00 | 0.00 | 97 | 1010.3 |
| 20260509112354 | 50 | 264 | 0.0 | 0.0 | 0.00 | 0.00 | 0.00 | 97 | 1010.1 |
| 20260509111852 | 50 | 264 | 0.0 | 0.0 | 0.00 | 0.00 | 0.00 | 96 | 1010.1 |
| 20260509111348 | 50 | 264 | 0.0 | 0.0 | 0.00 | 0.00 | 0.00 | 96 | 1010.1 |
| 20260509110846 | 50 | 264 | 1.0 | 1.0 | 0.00 | 0.00 | 0.00 | 96 | 1010.2 |
| 20260509110342 | 50 | 264 | 0.0 | 0.0 | 0.00 | 0.00 | 0.00 | 96 | 1010.1 |
| 20260509105841 | 50 | 264 | 0.0 | 0.0 | 0.00 | 0.00 | 0.00 | 96 | 1009.9 |
| 20260509105338 | 50 | 264 | 0.0 | 0.0 | 0.00 | 0.00 | 0.00 | 96 | 1009.9 |
| 20260509104835 | 50 | 264 | 0.0 | 0.0 | 0.00 | 0.00 | 0.00 | 96 | 1009.8 |
| 20260509104331 | 50 | 264 | 0.0 | 0.0 | 0.00 | 0.00 | 0.00 | 96 | 1009.8 |
| 20260509103829 | 50 | 264 | 0.0 | 0.0 | 0.00 | 0.00 | 0.00 | 96 | 1010.0 |
| 20260509103326 | 50 | 264 | 0.0 | 0.0 | 0.00 | 0.00 | 0.00 | 96 | 1009.9 |
| 20260509102825 | 50 | 264 | 0.0 | 0.0 | 0.00 | 0.00 | 0.00 | 96 | 1010.0 |
| 20260509102322 | 51 | 264 | 0.0 | 0.0 | 0.00 | 0.00 | 0.00 | 96 | 1009.9 |
| 20260509101818 | 51 | 264 | 0.0 | 0.0 | 0.00 | 0.00 | 0.00 | 96 | 1010.0 |
| 20260509101314 | 51 | 264 | 0.0 | 0.0 | 0.00 | 0.00 | 0.00 | 96 | 1009.8 |
| 20260509100812 | 51 | 264 | 0.0 | 0.0 | 0.00 | 0.00 | 0.00 | 96 | 1009.8 |
| 20260509100309 | 51 | 264 | 0.0 | 0.0 | 0.00 | 0.00 | 0.00 | 96 | 1009.8 |
| 20260509095805 | 50 | 264 | 0.0 | 0.0 | 0.00 | 0.00 | 0.00 | 96 | 1009.9 |
| 20260509095305 | 50 | 264 | 0.0 | 0.0 | 0.00 | 0.00 | 0.00 | 96 | 1009.7 |
| 20260509094800 | 51 | 264 | 0.0 | 0.0 | 0.00 | 0.00 | 0.00 | 96 | 1009.8 |
| 20260509094256 | 51 | 264 | 0.0 | 0.0 | 0.00 | 0.00 | 0.00 | 96 | 1010.1 |
| 20260509093754 | 51 | 264 | 0.0 | 0.0 | 0.00 | 0.00 | 0.00 | 96 | 1010.0 |
| 20260509093251 | 52 | 264 | 0.0 | 0.0 | 0.00 | 0.00 | 0.00 | 96 | 1010.0 |
| 20260509092750 | 52 | 264 | 0.0 | 0.0 | 0.00 | 0.00 | 0.00 | 96 | 1010.1 |
| 20260509092247 | 52 | 264 | 0.0 | 0.0 | 0.00 | 0.00 | 0.00 | 96 | 1009.8 |
| 20260509091745 | 52 | 264 | 0.0 | 0.0 | 0.00 | 0.00 | 0.00 | 96 | 1010.0 |
| 20260509091241 | 52 | 264 | 0.0 | 0.0 | 0.00 | 0.00 | 0.00 | 96 | 1010.1 |
| 20260509090739 | 53 | 264 | 1.0 | 1.0 | 0.00 | 0.00 | 0.00 | 96 | 1010.1 |
| 20260509090236 | 53 | 264 | 1.0 | 1.0 | 0.00 | 0.00 | 0.00 | 96 | 1010.0 |
| 20260509085733 | 52 | 264 | 0.0 | 0.0 | 0.00 | 0.00 | 0.00 | 96 | 1009.9 |
| 20260509085231 | 52 | 264 | 0.0 | 0.0 | 0.00 | 0.00 | 0.00 | 96 | 1010.0 |
| 20260509084727 | 52 | 264 | 0.0 | 0.0 | 0.00 | 0.00 | 0.00 | 96 | 1010.2 |
| 20260509084224 | 53 | 263 | 0.0 | 0.0 | 0.00 | 0.00 | 0.00 | 96 | 1010.2 |
| 20260509083722 | 53 | 263 | 0.0 | 0.0 | 0.00 | 0.00 | 0.00 | 96 | 1010.2 |
| 20260509083218 | 53 | 263 | 0.0 | 0.0 | 0.00 | 0.00 | 0.00 | 96 | 1010.2 |
| 20260509082715 | 53 | 263 | 0.0 | 0.0 | 0.00 | 0.00 | 0.00 | 96 | 1010.4 |
| 20260509082212 | 53 | 263 | 0.0 | 0.0 | 0.00 | 0.00 | 0.00 | 96 | 1010.4 |
| 20260509081708 | 53 | 263 | 0.0 | 0.0 | 0.00 | 0.00 | 0.00 | 96 | 1010.5 |
| 20260509081206 | 53 | 263 | 0.0 | 0.0 | 0.00 | 0.00 | 0.00 | 96 | 1010.5 |
| 20260509080704 | 53 | 263 | 0.0 | 0.0 | 0.00 | 0.00 | 0.00 | 96 | 1010.4 |
| 20260509080201 | 53 | 263 | 0.0 | 0.0 | 0.00 | 0.00 | 0.00 | 96 | 1010.7 |
| 20260509075659 | 53 | 263 | 0.0 | 0.0 | 0.00 | 0.00 | 0.00 | 96 | 1010.7 |
| 20260509075157 | 53 | 263 | 0.0 | 0.0 | 0.00 | 0.00 | 0.00 | 96 | 1010.7 |
| 20260509074654 | 54 | 263 | 0.0 | 0.0 | 0.00 | 0.00 | 0.00 | 96 | 1010.8 |
| 20260509074150 | 54 | 263 | 0.0 | 0.0 | 0.00 | 0.00 | 0.00 | 96 | 1010.7 |
| 20260509073647 | 54 | 263 | 0.0 | 0.0 | 0.00 | 0.00 | 0.00 | 96 | 1010.7 |
| 20260509073143 | 54 | 263 | 0.0 | 0.0 | 0.00 | 0.00 | 0.00 | 96 | 1010.7 |
| 20260509072640 | 54 | 263 | 0.0 | 0.0 | 0.00 | 0.00 | 0.00 | 96 | 1010.6 |
| 20260509072132 | 54 | 264 | 0.0 | 0.0 | 0.00 | 0.00 | 0.00 | 96 | 1010.7 |
| 20260509071628 | 54 | 264 | 0.0 | 0.0 | 0.00 | 0.00 | 0.00 | 96 | 1010.8 |
| 20260509071126 | 54 | 263 | 0.0 | 0.0 | 0.00 | 0.00 | 0.00 | 96 | 1010.8 |
| 20260509070622 | 54 | 263 | 0.0 | 0.0 | 0.00 | 0.00 | 0.00 | 96 | 1010.8 |
| 20260509070118 | 55 | 263 | 0.0 | 0.0 | 0.00 | 0.00 | 0.00 | 95 | 1010.7 |
| 20260509065614 | 55 | 263 | 0.0 | 0.0 | 0.00 | 0.00 | 0.00 | 95 | 1010.5 |
| 20260509065110 | 55 | 263 | 0.0 | 0.0 | 0.00 | 0.00 | 0.00 | 95 | 1010.5 |
| 20260509064607 | 55 | 263 | 0.0 | 0.0 | 0.00 | 0.00 | 0.00 | 95 | 1010.7 |
| 20260509064106 | 55 | 263 | 0.0 | 0.0 | 0.00 | 0.00 | 0.00 | 95 | 1010.5 |
| 20260509063601 | 55 | 264 | 0.0 | 0.0 | 0.00 | 0.00 | 0.00 | 95 | 1010.6 |
| 20260509063059 | 56 | 263 | 0.0 | 0.0 | 0.00 | 0.00 | 0.00 | 95 | 1010.7 |
| 20260509062555 | 55 | 263 | 0.0 | 0.0 | 0.00 | 0.00 | 0.00 | 95 | 1010.7 |
| 20260509062053 | 56 | 263 | 0.0 | 0.0 | 0.00 | 0.00 | 0.00 | 95 | 1010.7 |
| 20260509061549 | 56 | 263 | 0.0 | 0.0 | 0.00 | 0.00 | 0.00 | 95 | 1010.6 |
| 20260509061047 | 56 | 289 | 0.0 | 0.0 | 0.00 | 0.00 | 0.00 | 94 | 1010.7 |
| 20260509060545 | 56 | 359 | 0.0 | 1.0 | 0.00 | 0.00 | 0.00 | 94 | 1010.6 |
| 20260509060035 | 56 | 29 | 0.0 | 0.0 | 0.00 | 0.00 | 0.00 | 94 | 1010.6 |
| 20260509055531 | 56 | 354 | 2.0 | 3.0 | 0.00 | 0.00 | 0.00 | 93 | 1010.5 |
| 20260509055027 | 56 | 12 | 0.0 | 1.0 | 0.00 | 0.00 | 0.00 | 93 | 1010.6 |
| 20260509054523 | 56 | 331 | 4.0 | 6.0 | 0.00 | 0.00 | 0.00 | 93 | 1010.7 |
| 20260509054021 | 57 | 5 | 3.0 | 4.0 | 0.00 | 0.00 | 0.00 | 93 | 1010.6 |
| 20260509053519 | 57 | 18 | 3.0 | 4.0 | 0.00 | 0.00 | 0.00 | 93 | 1010.5 |
| 20260509053016 | 57 | 358 | 5.0 | 7.0 | 0.00 | 0.00 | 0.00 | 92 | 1010.7 |
| 20260509052514 | 57 | 13 | 2.0 | 3.0 | 0.00 | 0.00 | 0.00 | 91 | 1010.6 |
| 20260509052012 | 57 | 17 | 2.0 | 2.0 | 0.00 | 0.00 | 0.00 | 90 | 1010.5 |
| 20260509051510 | 58 | 47 | 1.0 | 2.0 | 0.00 | 0.00 | 0.00 | 89 | 1010.5 |
| 20260509051007 | 58 | 119 | 0.0 | 0.0 | 0.00 | 0.00 | 0.00 | 89 | 1010.5 |
| 20260509050503 | 57 | 65 | 2.0 | 2.0 | 0.00 | 0.00 | 0.00 | 91 | 1010.4 |
| 20260509050000 | 57 | 349 | 1.0 | 2.0 | 0.00 | 0.00 | 0.00 | 93 | 1010.4 |
| 20260509045457 | 57 | 327 | 0.0 | 0.0 | 0.00 | 0.00 | 0.00 | 92 | 1010.4 |
| 20260509044954 | 57 | 283 | 0.0 | 0.0 | 0.00 | 0.00 | 0.00 | 92 | 1010.4 |
| 20260509044452 | 57 | 291 | 1.0 | 1.0 | 0.00 | 0.00 | 0.00 | 92 | 1010.5 |
| 20260509043949 | 57 | 217 | 0.0 | 0.0 | 0.00 | 0.00 | 0.00 | 91 | 1010.4 |
| 20260509043444 | 58 | 215 | 0.0 | 0.0 | 0.00 | 0.00 | 0.00 | 90 | 1010.5 |
| 20260509042940 | 57 | 170 | 1.0 | 1.0 | 0.00 | 0.00 | 0.00 | 91 | 1010.3 |
| 20260509042437 | 57 | 273 | 1.0 | 1.0 | 0.00 | 0.00 | 0.00 | 91 | 1010.4 |
| 20260509041933 | 59 | 278 | 4.0 | 4.0 | 0.00 | 0.00 | 0.00 | 89 | 1010.2 |
| 20260509041430 | 58 | 168 | 2.0 | 2.0 | 0.00 | 0.00 | 0.00 | 90 | 1010.1 |
| 20260509040927 | 59 | 274 | 0.0 | 0.0 | 0.00 | 0.00 | 0.00 | 89 | 1010.2 |
| 20260509040425 | 59 | 206 | 0.0 | 1.0 | 0.00 | 0.00 | 0.00 | 87 | 1010.2 |
| 20260509035922 | 59 | 206 | 1.0 | 1.0 | 0.00 | 0.18 | 0.18 | 87 | 1009.8 |
| 20260509035419 | 59 | 208 | 3.0 | 3.0 | 0.00 | 0.18 | 0.18 | 88 | 1009.9 |
| 20260509034915 | 59 | 261 | 1.0 | 1.0 | 0.00 | 0.18 | 0.18 | 89 | 1010.0 |
| 20260509034413 | 59 | 261 | 1.0 | 1.0 | 0.00 | 0.18 | 0.18 | 89 | 1009.9 |
| 20260509033910 | 60 | 263 | 1.0 | 2.0 | 0.00 | 0.18 | 0.18 | 87 | 1009.7 |